createdAt,value
2023-05-24T00:01:51.776Z,50.83
2023-05-24T00:04:20.286Z,51.44
2023-05-24T00:09:56.105Z,51.02
2023-05-24T00:12:43.407Z,51.00
2023-05-24T00:15:11.754Z,51.22
2023-05-24T00:20:47.385Z,52.04
2023-05-24T00:23:16.030Z,52.17
2023-05-24T00:25:45.532Z,52.05
2023-05-24T00:32:10.039Z,51.58
2023-05-24T00:34:47.155Z,51.12
2023-05-24T00:37:15.248Z,51.93
2023-05-24T00:40:05.137Z,51.94
2023-05-24T00:45:40.932Z,51.77
2023-05-24T00:51:15.723Z,51.86
2023-05-24T00:53:46.977Z,51.54
2023-05-24T00:59:19.155Z,51.72
2023-05-24T01:02:06.385Z,51.50
2023-05-24T01:04:37.838Z,51.50
2023-05-24T01:07:26.824Z,51.54
2023-05-24T01:10:10.511Z,51.52
2023-05-24T01:12:52.939Z,51.28
2023-05-24T01:26:09.192Z,51.23
2023-05-24T01:28:40.467Z,51.56
2023-05-24T01:31:15.801Z,51.72
2023-05-24T01:33:44.749Z,51.85
2023-05-24T01:36:12.978Z,51.23
2023-05-24T01:38:42.355Z,51.32
2023-05-24T01:45:05.306Z,51.58
2023-05-24T01:50:32.671Z,51.98
2023-05-24T01:53:05.872Z,51.66
2023-05-24T01:55:34.556Z,51.86
2023-05-24T01:58:12.013Z,51.27
2023-05-24T02:00:42.871Z,51.38
2023-05-24T02:03:26.704Z,51.32
2023-05-24T02:05:54.746Z,52.35
2023-05-24T02:08:23.082Z,52.02
2023-05-24T02:10:51.154Z,51.47
2023-05-24T02:13:19.920Z,51.33
2023-05-24T02:15:49.980Z,51.65
2023-05-24T02:21:18.436Z,52.17
2023-05-24T02:24:05.385Z,52.38
2023-05-24T02:26:56.100Z,52.03
2023-05-24T02:33:25.539Z,51.91
2023-05-24T02:35:54.008Z,51.38
2023-05-24T02:41:18.218Z,52.77
2023-05-24T02:43:46.687Z,52.20
2023-05-24T02:46:33.617Z,52.04
2023-05-24T02:49:21.467Z,53.29
2023-05-24T02:52:28.372Z,52.20
2023-05-24T02:55:16.406Z,52.55
2023-05-24T02:57:48.060Z,51.94
2023-05-24T03:03:20.634Z,52.10
2023-05-24T03:08:44.615Z,52.69
2023-05-24T03:11:24.637Z,53.13
2023-05-24T03:13:54.080Z,52.06
2023-05-24T03:16:22.412Z,52.92
2023-05-24T03:22:36.901Z,52.92
2023-05-24T03:28:33.394Z,52.36
2023-05-24T03:37:43.335Z,52.69
2023-05-24T03:40:19.203Z,53.08
2023-05-24T03:42:55.820Z,53.09
2023-05-24T03:48:54.327Z,53.01
2023-05-24T03:51:24.410Z,53.18
2023-05-24T03:53:52.616Z,53.27
2023-05-24T03:56:38.205Z,53.45
2023-05-24T03:59:20.354Z,52.85
2023-05-24T04:01:49.058Z,52.37
2023-05-24T04:14:25.123Z,53.18
2023-05-24T04:17:16.397Z,52.82
2023-05-24T04:20:04.440Z,53.21
2023-05-24T04:22:33.578Z,53.07
2023-05-24T04:28:09.320Z,52.94
2023-05-24T04:30:56.427Z,52.47
2023-05-24T04:33:44.365Z,53.14
2023-05-24T04:45:41.861Z,52.51
2023-05-24T04:48:29.412Z,52.24
2023-05-24T04:57:13.833Z,51.57
2023-05-24T05:00:01.427Z,51.65
2023-05-24T05:02:31.251Z,51.65
2023-05-24T05:14:22.347Z,51.51
2023-05-24T05:17:11.391Z,51.03
2023-05-24T05:19:40.751Z,51.05
2023-05-24T05:25:37.235Z,50.85
2023-05-24T05:31:55.841Z,50.29
2023-05-24T05:34:24.194Z,50.34
2023-05-24T05:36:53.564Z,49.94
2023-05-24T05:39:21.619Z,50.07
2023-05-24T05:41:49.950Z,50.12
2023-05-24T05:44:18.017Z,49.55
2023-05-24T05:46:46.399Z,49.58
2023-05-24T05:49:15.794Z,49.67
2023-05-24T05:51:43.959Z,49.51
2023-05-24T05:54:22.398Z,49.53
2023-05-24T05:56:51.195Z,48.84
2023-05-24T05:59:19.634Z,49.05
2023-05-24T06:02:05.831Z,49.15
2023-05-24T06:08:02.132Z,48.85
2023-05-24T06:14:22.714Z,48.32
2023-05-24T06:16:52.399Z,48.33
2023-05-24T06:19:21.980Z,49.03
2023-05-24T06:21:50.906Z,49.08
2023-05-24T06:24:21.412Z,48.23
2023-05-24T06:26:50.160Z,48.96
2023-05-24T06:32:53.514Z,48.07
2023-05-24T06:35:22.138Z,48.78
2023-05-24T06:37:50.224Z,47.54
2023-05-24T06:40:18.700Z,48.42
2023-05-24T06:42:47.174Z,47.94
2023-05-24T06:45:22.036Z,48.97
2023-05-24T06:47:52.274Z,48.58
2023-05-24T06:50:20.432Z,48.86
2023-05-24T06:52:51.525Z,49.13
2023-05-24T06:55:20.418Z,49.07
2023-05-24T07:00:53.392Z,48.19
2023-05-24T07:04:03.409Z,48.94
2023-05-24T07:06:53.587Z,47.87
2023-05-24T07:10:02.510Z,48.38
2023-05-24T07:12:32.518Z,47.37
2023-05-24T07:15:00.611Z,48.08
2023-05-24T07:17:28.797Z,48.51
2023-05-24T07:19:58.579Z,48.41
2023-05-24T07:22:28.734Z,46.32
2023-05-24T07:24:57.014Z,47.36
2023-05-24T07:27:25.127Z,47.15
2023-05-24T07:29:53.243Z,48.05
2023-05-24T07:32:21.703Z,47.42
2023-05-24T07:34:50.520Z,47.26
2023-05-24T07:37:24.069Z,46.87
2023-05-24T07:39:53.076Z,47.77
2023-05-24T07:42:35.748Z,47.90
2023-05-24T07:45:24.968Z,46.09
2023-05-24T07:47:55.949Z,46.23
2023-05-24T07:50:40.364Z,47.55
2023-05-24T07:53:09.994Z,46.22
2023-05-24T07:55:56.451Z,46.75
2023-05-24T07:58:24.576Z,46.19
2023-05-24T08:01:18.484Z,45.86
2023-05-24T08:03:47.730Z,44.21
2023-05-24T08:09:14.018Z,44.71
2023-05-24T08:11:42.219Z,46.46
2023-05-24T08:17:16.392Z,44.63
2023-05-24T08:34:08.973Z,45.25
2023-05-24T08:36:55.122Z,45.48
2023-05-24T08:42:30.437Z,44.26
2023-05-24T08:45:18.379Z,46.44
2023-05-24T08:47:48.763Z,45.09
2023-05-24T08:53:48.815Z,44.30
2023-05-24T08:56:31.498Z,44.68
2023-05-24T08:58:59.445Z,44.54
2023-05-24T09:01:30.794Z,46.49
2023-05-24T09:04:01.465Z,46.38
2023-05-24T09:06:30.250Z,46.57
2023-05-24T09:09:00.724Z,46.20
2023-05-24T09:11:38.808Z,45.40
2023-05-24T09:14:07.894Z,44.99
2023-05-24T09:20:43.370Z,44.07
2023-05-24T09:23:43.474Z,43.93
2023-05-24T09:26:19.424Z,42.68
2023-05-24T09:28:49.437Z,43.09
2023-05-24T09:31:33.073Z,45.73
2023-05-24T09:34:11.869Z,43.55
2023-05-24T09:36:43.920Z,42.17
2023-05-24T09:39:12.724Z,43.27
2023-05-24T09:41:45.119Z,43.97
2023-05-24T09:44:15.345Z,42.73
2023-05-24T09:46:43.518Z,44.73
2023-05-24T09:55:01.358Z,44.74
2023-05-24T09:57:32.707Z,45.42
2023-05-24T10:00:14.683Z,44.14
2023-05-24T10:02:52.893Z,42.81
2023-05-24T10:06:17.198Z,44.86
2023-05-24T10:08:58.400Z,41.39
2023-05-24T10:11:27.893Z,41.73
2023-05-24T10:14:00.002Z,43.81
2023-05-24T10:16:47.358Z,44.65
2023-05-24T10:19:16.953Z,42.60
2023-05-24T10:22:04.684Z,42.95
2023-05-24T10:24:36.627Z,43.21
2023-05-24T10:27:08.893Z,43.39
2023-05-24T10:30:08.052Z,41.82
2023-05-24T10:33:14.554Z,41.93
2023-05-24T10:35:44.616Z,42.29
2023-05-24T10:38:12.670Z,42.85
2023-05-24T10:40:43.757Z,43.65
2023-05-24T10:44:04.815Z,43.08
2023-05-24T10:47:17.215Z,40.52
2023-05-24T10:49:53.214Z,40.68
2023-05-24T10:52:21.709Z,42.96
2023-05-24T10:55:05.624Z,43.63
2023-05-24T10:57:34.041Z,40.98
2023-05-24T11:04:03.419Z,40.77
2023-05-24T11:09:53.202Z,40.78
2023-05-24T11:12:22.760Z,42.10
2023-05-24T11:14:52.696Z,43.27
2023-05-24T11:17:43.671Z,42.41
2023-05-24T11:20:42.186Z,43.08
2023-05-24T11:23:11.620Z,40.03
2023-05-24T11:25:40.379Z,42.68
2023-05-24T11:28:10.876Z,42.94
2023-05-24T11:30:47.302Z,42.23
2023-05-24T11:33:16.413Z,40.29
2023-05-24T11:35:51.559Z,42.24
2023-05-24T11:38:24.182Z,41.31
2023-05-24T11:40:54.164Z,41.85
2023-05-24T11:43:23.024Z,40.88
2023-05-24T11:45:54.464Z,41.88
2023-05-24T11:48:30.713Z,41.84
2023-05-24T11:51:08.838Z,41.62
2023-05-24T11:53:37.088Z,39.36
2023-05-24T11:56:20.889Z,42.11
2023-05-24T11:58:51.284Z,41.28
2023-05-24T12:01:27.503Z,41.13
2023-05-24T12:03:56.290Z,40.08
2023-05-24T12:06:35.976Z,40.73
2023-05-24T12:09:35.972Z,38.70
2023-05-24T12:12:04.196Z,38.18
2023-05-24T12:14:35.015Z,41.04
2023-05-24T12:17:03.294Z,39.47
2023-05-24T12:23:16.916Z,37.92
2023-05-24T12:25:56.508Z,38.71
2023-05-24T12:28:37.024Z,41.12
2023-05-24T12:31:18.841Z,38.72
2023-05-24T12:33:57.464Z,40.86
2023-05-24T12:36:26.153Z,40.36
2023-05-24T12:38:58.070Z,40.31
2023-05-24T12:41:28.389Z,39.18
2023-05-24T12:44:18.076Z,39.97
2023-05-24T12:46:46.276Z,40.22
2023-05-24T12:49:14.650Z,40.74
2023-05-24T12:51:44.949Z,40.74
2023-05-24T12:54:16.129Z,40.59
2023-05-24T12:56:44.234Z,40.05
2023-05-24T13:02:16.912Z,39.21
2023-05-24T13:04:52.400Z,39.61
2023-05-24T13:07:26.590Z,39.42
2023-05-24T13:10:19.500Z,38.78
2023-05-24T13:12:48.121Z,34.91
2023-05-24T13:15:34.135Z,38.99
2023-05-24T13:18:30.449Z,37.86
2023-05-24T13:21:00.513Z,37.98
2023-05-24T13:23:28.899Z,39.11
2023-05-24T13:25:58.424Z,38.20
2023-05-24T13:28:53.346Z,38.38
2023-05-24T13:31:29.068Z,36.68
2023-05-24T13:36:51.429Z,36.96
2023-05-24T13:39:19.791Z,37.43
2023-05-24T13:42:26.454Z,36.92
2023-05-24T13:44:56.251Z,33.04
2023-05-24T13:47:38.663Z,37.59
2023-05-24T13:50:12.216Z,37.72
2023-05-24T13:52:40.238Z,37.38
2023-05-24T13:55:09.160Z,38.45
2023-05-24T13:57:51.227Z,38.48
2023-05-24T14:00:28.387Z,38.08
2023-05-24T14:03:05.227Z,37.92
2023-05-24T14:06:19.552Z,38.10
2023-05-24T14:08:48.264Z,38.25
2023-05-24T14:11:16.495Z,38.04
2023-05-24T14:16:34.726Z,35.80
2023-05-24T14:19:02.873Z,37.95
2023-05-24T14:21:43.941Z,37.73
2023-05-24T14:24:54.179Z,37.57
2023-05-24T14:28:03.665Z,34.91
2023-05-24T14:31:10.264Z,35.22
2023-05-24T14:33:59.870Z,36.16
2023-05-24T14:36:47.593Z,34.45
2023-05-24T14:39:15.614Z,35.08
2023-05-24T14:41:43.860Z,36.73
2023-05-24T14:44:11.986Z,36.28
2023-05-24T14:46:50.684Z,36.36
2023-05-24T14:49:21.691Z,35.10
2023-05-24T14:51:50.816Z,35.17
2023-05-24T14:54:40.708Z,35.92
2023-05-24T14:59:56.342Z,36.79
2023-05-24T15:02:30.015Z,36.49
2023-05-24T15:05:00.697Z,36.27
2023-05-24T15:07:29.194Z,35.00
2023-05-24T15:10:06.585Z,35.80
2023-05-24T15:12:35.112Z,34.27
2023-05-24T15:15:03.449Z,36.22
2023-05-24T15:17:31.988Z,34.98
2023-05-24T15:20:04.612Z,33.97
2023-05-24T15:23:07.816Z,34.74
2023-05-24T15:25:36.904Z,34.60
2023-05-24T15:28:18.274Z,35.99
2023-05-24T15:31:08.102Z,36.40
2023-05-24T15:34:16.156Z,34.71
2023-05-24T15:36:47.888Z,34.32
2023-05-24T15:46:10.206Z,35.96
2023-05-24T15:48:39.221Z,37.25
2023-05-24T15:53:40.424Z,36.33
2023-05-24T15:56:09.847Z,35.36
2023-05-24T15:58:38.034Z,35.79
2023-05-24T16:01:06.407Z,35.95
2023-05-24T16:03:34.770Z,35.99
2023-05-24T16:06:05.210Z,35.72
2023-05-24T16:08:34.090Z,35.78
2023-05-24T16:11:08.127Z,35.86
2023-05-24T16:13:36.242Z,35.48
2023-05-24T16:16:05.161Z,36.22
2023-05-24T16:18:35.428Z,37.07
2023-05-24T16:21:03.703Z,37.34
2023-05-24T16:23:32.254Z,37.66
2023-05-24T16:26:12.408Z,37.88
2023-05-24T16:28:55.316Z,37.47
2023-05-24T16:31:42.319Z,37.75
2023-05-24T16:34:52.128Z,37.69
2023-05-24T16:37:23.979Z,37.93
2023-05-24T16:39:52.286Z,38.30
2023-05-24T16:42:23.976Z,38.43
2023-05-24T16:44:52.282Z,38.37
2023-05-24T16:47:20.634Z,38.59
2023-05-24T16:49:48.698Z,38.72
2023-05-24T16:52:17.301Z,38.78
2023-05-24T16:54:45.368Z,38.97
2023-05-24T16:57:16.454Z,38.96
2023-05-24T16:59:50.815Z,39.09
2023-05-24T17:02:19.143Z,39.45
2023-05-24T17:04:47.541Z,39.59
2023-05-24T17:07:15.697Z,39.83
2023-05-24T17:09:43.814Z,39.44
2023-05-24T17:16:05.323Z,39.85
2023-05-24T17:18:55.091Z,39.76
2023-05-24T17:21:27.776Z,39.79
2023-05-24T17:23:57.732Z,39.85
2023-05-24T17:26:27.077Z,39.77
2023-05-24T17:28:55.334Z,39.61
2023-05-24T17:31:23.551Z,39.70
2023-05-24T17:33:51.889Z,39.70
2023-05-24T17:36:21.437Z,39.44
2023-05-24T17:42:33.737Z,38.21
2023-05-24T17:45:02.124Z,37.75
2023-05-24T17:47:30.534Z,38.16
2023-05-24T17:49:58.568Z,38.37
2023-05-24T17:52:39.906Z,38.91
2023-05-24T17:55:09.588Z,38.90
2023-05-24T17:57:37.901Z,38.75
2023-05-24T18:00:07.507Z,38.20
2023-05-24T18:02:36.054Z,38.09
2023-05-24T18:05:04.692Z,37.73
2023-05-24T18:07:34.138Z,37.53
2023-05-24T18:10:02.560Z,37.47
2023-05-24T18:12:35.064Z,37.24
2023-05-24T18:15:23.451Z,36.23
2023-05-24T18:17:51.856Z,36.23
2023-05-24T18:24:49.520Z,37.56
2023-05-24T18:27:19.184Z,38.19
2023-05-24T18:33:13.970Z,39.24
2023-05-24T18:35:42.391Z,39.87
2023-05-24T18:38:50.088Z,39.57
2023-05-24T18:41:45.071Z,40.69
2023-05-24T18:47:37.077Z,41.31
2023-05-24T18:50:06.618Z,40.80
2023-05-24T18:52:34.713Z,40.85
2023-05-24T18:58:47.437Z,41.85
2023-05-24T19:01:16.061Z,42.42
2023-05-24T19:03:45.460Z,42.15
2023-05-24T19:06:53.810Z,41.91
2023-05-24T19:12:52.376Z,43.13
2023-05-24T19:19:31.308Z,43.32
2023-05-24T19:21:59.563Z,42.83
2023-05-24T19:24:27.666Z,42.89
2023-05-24T19:27:11.413Z,42.93
2023-05-24T19:30:20.534Z,45.93
2023-05-24T19:33:07.694Z,46.13
2023-05-24T19:39:30.180Z,44.95
2023-05-24T19:42:37.522Z,46.38
2023-05-24T19:45:06.536Z,46.94
2023-05-24T19:47:34.920Z,44.10
2023-05-24T19:51:00.352Z,44.33
2023-05-24T19:53:28.854Z,46.01
2023-05-24T19:59:07.408Z,46.52
2023-05-24T20:01:35.761Z,45.16
2023-05-24T20:07:10.196Z,46.62
2023-05-24T20:13:04.502Z,46.51
2023-05-24T20:21:51.319Z,46.59
2023-05-24T20:24:19.620Z,45.38
2023-05-24T20:26:47.809Z,45.45
2023-05-24T20:29:15.893Z,45.48
2023-05-24T20:31:47.051Z,45.47
2023-05-24T20:34:15.041Z,45.72
2023-05-24T20:36:44.072Z,45.69
2023-05-24T20:39:22.668Z,45.76
2023-05-24T20:41:51.215Z,46.79
2023-05-24T20:44:19.332Z,46.22
2023-05-24T20:46:48.831Z,46.50
2023-05-24T20:49:31.578Z,45.98
2023-05-24T20:51:59.745Z,46.86
2023-05-24T20:57:55.414Z,47.01
2023-05-24T21:00:43.512Z,47.36
2023-05-24T21:03:35.320Z,47.56
2023-05-24T21:06:03.635Z,48.89
2023-05-24T21:14:42.892Z,46.80
2023-05-24T21:20:42.448Z,46.71
2023-05-24T21:23:11.281Z,46.94
2023-05-24T21:25:39.199Z,46.75
2023-05-24T21:28:07.233Z,46.99
2023-05-24T21:30:55.206Z,47.14
2023-05-24T21:33:23.361Z,49.01
2023-05-24T21:36:11.459Z,47.00
2023-05-24T21:38:39.475Z,47.99
2023-05-24T21:41:24.559Z,47.04
2023-05-24T21:43:52.645Z,48.20
2023-05-24T21:46:38.569Z,47.12
2023-05-24T21:49:28.892Z,48.11
2023-05-24T21:52:17.956Z,48.08
2023-05-24T21:54:45.964Z,49.38
2023-05-24T21:57:31.985Z,47.34
2023-05-24T22:00:19.988Z,48.45
2023-05-24T22:03:06.439Z,48.21
2023-05-24T22:05:34.780Z,48.59
2023-05-24T22:08:04.633Z,47.53
2023-05-24T22:10:53.677Z,47.60
2023-05-24T22:13:21.963Z,48.20
2023-05-24T22:18:36.103Z,48.04
2023-05-24T22:24:52.417Z,47.72
2023-05-24T22:27:20.960Z,50.38
2023-05-24T22:29:49.204Z,48.42
2023-05-24T22:32:33.792Z,48.24
2023-05-24T22:42:02.684Z,48.62
2023-05-24T22:45:03.115Z,50.40
2023-05-24T22:47:42.480Z,49.33
2023-05-24T22:50:27.618Z,49.07
2023-05-24T22:53:07.173Z,49.31
2023-05-24T22:58:29.412Z,49.22
2023-05-24T23:00:57.485Z,49.61
2023-05-24T23:03:25.873Z,49.21
2023-05-24T23:05:54.531Z,49.45
2023-05-24T23:08:22.756Z,49.66
2023-05-24T23:13:46.394Z,48.71
2023-05-24T23:16:17.988Z,48.71
2023-05-24T23:18:46.117Z,49.57
2023-05-24T23:21:16.703Z,50.34
2023-05-24T23:23:46.272Z,50.00
2023-05-24T23:26:14.698Z,49.82
2023-05-24T23:28:43.158Z,49.54
2023-05-24T23:31:12.792Z,49.54
2023-05-24T23:33:41.394Z,50.16
2023-05-24T23:36:10.101Z,50.31
2023-05-24T23:38:38.302Z,50.15
2023-05-24T23:41:06.694Z,49.83
2023-05-24T23:43:35.006Z,49.75
2023-05-24T23:46:03.062Z,49.83
2023-05-24T23:48:32.765Z,50.12
2023-05-24T23:51:00.767Z,49.76
2023-05-24T23:53:28.937Z,50.04
2023-05-24T23:55:57.301Z,50.07
2023-05-24T23:58:25.594Z,49.86
